Main page
METAR-TAF:

METAR-TAF

Airports :

Brighton City Airport (Shoreham Airport)

Brighton, England

latitude: 50-50N, longitude: 000-17W, elevation: 2 m

Current weather observation

The report was made 2 hours and 27 minutes ago, at 17:50 UTC
Wind 4 kt from the North/Northwest
Temperature 5°C
Humidity 81%
Pressure 1037 hPa
Visibility 10 km or more
Broken clouds at a height of 1500 ft

METAR: EGKA 221750Z 34004KT 9999 BKN015 05/02 Q1037

Time: 20:17 (20:17 UTC)

Forecast

The report was made 6 hours and 18 minutes ago, at 13:59 UTC
Forecast valid from 22 at 15 UTC to 22 at 19 UTC
Wind 5 kt from the North/Northwest
Visibility 10 km or more
Broken clouds at a height of 2000 ft

TAF: EGKA 221359Z 2215/2219 33005KT 9999 BKN020

Weather observations and forecasts of more than 4000 airports (METAR and TAF reports).

The available stations are represented by yellow and red dots on the map.

Hover mouse over dot to see the name of the station.

Then click to see weather observations and forecasts.

To change the map : click on the green buttons with a black cross to zoom in, on the green button with a dash to zoom out, or on the green arrows for adjacent maps.


METAR-TAF: